Time;durP1;ratioP1;P1;durP2;ratioP2;P2;SDS_P1;SDS_P2;PMS_P1;PMS_P2;Temp;Humidity;BMP_temperature;BMP_pressure;BME280_temperature;BME280_humidity;BME280_pressure;Samples;Min_cycle;Max_cycle;Signal;HPM_P1;HPM_P2
2022/05/24 00:00:40;;;;;;;0.80;0.70;;;17.10;99.90;;;;;;5073472;28;21191;-83
2022/05/24 00:03:07;;;;;;;1.03;0.73;;;17.10;99.90;;;;;;5090580;28;20632;-82
2022/05/24 00:05:35;;;;;;;0.63;0.53;;;16.90;99.90;;;;;;5072047;28;20724;-82
2022/05/24 00:08:04;;;;;;;0.50;0.33;;;16.90;99.90;;;;;;5072750;28;20679;-83
2022/05/24 00:10:33;;;;;;;0.40;0.40;;;16.90;99.90;;;;;;5080278;28;20978;-82
2022/05/24 00:13:02;;;;;;;0.40;0.40;;;16.90;99.90;;;;;;5082696;28;20626;-82
2022/05/24 00:15:33;;;;;;;0.40;0.37;;;16.80;99.90;;;;;;5072702;28;20625;-82
2022/05/24 00:18:03;;;;;;;0.60;0.57;;;16.80;99.90;;;;;;5073204;28;20688;-83
2022/05/24 00:20:33;;;;;;;0.50;0.37;;;16.80;99.90;;;;;;5090885;28;21046;-83
2022/05/24 00:23:01;;;;;;;0.50;0.50;;;16.80;99.90;;;;;;5091317;28;20658;-82
2022/05/24 00:25:29;;;;;;;0.40;0.40;;;16.70;99.90;;;;;;5092981;28;20601;-82
2022/05/24 00:27:57;;;;;;;0.50;0.40;;;16.60;99.90;;;;;;5073652;28;21214;-82
2022/05/24 00:30:26;;;;;;;0.40;0.30;;;16.50;99.90;;;;;;5072275;28;20707;-83
2022/05/24 00:32:54;;;;;;;0.30;0.30;;;16.50;99.90;;;;;;5090492;28;20666;-82
2022/05/24 00:35:22;;;;;;;0.50;0.37;;;16.40;99.90;;;;;;5080571;28;20624;-82
2022/05/24 00:37:50;;;;;;;0.40;0.33;;;16.30;99.90;;;;;;5072387;28;20661;-82
2022/05/24 00:40:35;;;;;;;0.40;0.30;;;16.30;99.90;;;;;;5072814;28;21045;-82
2022/05/24 00:43:08;;;;;;;0.40;0.40;;;16.30;99.90;;;;;;5070441;28;20629;-83
2022/05/24 00:45:43;;;;;;;0.40;0.40;;;16.30;99.90;;;;;;5080630;28;21302;-82
2022/05/24 00:48:22;;;;;;;0.30;0.20;;;16.30;99.90;;;;;;5077469;28;20632;-82
2022/05/24 00:50:52;;;;;;;0.40;0.40;;;16.20;99.90;;;;;;5078187;28;20751;-82
2022/05/24 00:53:24;;;;;;;0.40;0.40;;;16.10;99.90;;;;;;5091691;28;21029;-82
2022/05/24 00:55:59;;;;;;;0.60;0.30;;;16.10;99.90;;;;;;5064121;28;20621;-82
2022/05/24 00:58:37;;;;;;;0.83;0.50;;;16.20;99.90;;;;;;5071584;28;20657;-82
2022/05/24 01:01:27;;;;;;;0.50;0.50;;;16.20;99.90;;;;;;5071639;28;20656;-82
2022/05/24 01:03:54;;;;;;;0.70;0.40;;;16.20;99.90;;;;;;5072410;28;21070;-83
2022/05/24 01:06:21;;;;;;;0.40;0.30;;;16.20;99.90;;;;;;5091334;28;20707;-82
2022/05/24 01:08:48;;;;;;;0.40;0.30;;;16.30;99.90;;;;;;5071765;28;20720;-82
2022/05/24 01:11:19;;;;;;;0.50;0.40;;;16.20;99.90;;;;;;5075079;28;20624;-82
2022/05/24 01:13:47;;;;;;;0.83;0.47;;;16.20;99.90;;;;;;5071251;28;20625;-82
2022/05/24 01:16:16;;;;;;;0.40;0.40;;;16.20;99.90;;;;;;5070776;28;20630;-82
2022/05/24 01:18:45;;;;;;;0.40;0.33;;;16.30;99.90;;;;;;5071213;28;20652;-82
2022/05/24 01:21:16;;;;;;;0.40;0.30;;;16.30;99.90;;;;;;5058388;28;20627;-82
2022/05/24 01:23:54;;;;;;;0.40;0.40;;;16.30;99.90;;;;;;5071982;28;20675;-81
2022/05/24 01:26:27;;;;;;;0.53;0.43;;;16.30;99.90;;;;;;5060997;28;20997;-82
2022/05/24 01:29:00;;;;;;;0.50;0.40;;;16.40;99.90;;;;;;5065908;28;20673;-82
2022/05/24 01:36:09;;;;;;;0.67;0.47;;;16.30;99.90;;;;;;5086895;28;20619;-82
2022/05/24 01:37:06;;;;;;;0.40;0.30;;;16.20;99.90;;;;;;5071931;28;20657;-82
2022/05/24 01:39:34;;;;;;;0.43;0.30;;;16.10;99.90;;;;;;5079137;28;20752;-82
2022/05/24 01:42:01;;;;;;;0.63;0.30;;;16.20;99.90;;;;;;5070080;28;20621;-82
2022/05/24 01:44:36;;;;;;;0.43;0.33;;;16.10;99.90;;;;;;5089459;28;21252;-82
2022/05/24 01:47:04;;;;;;;0.80;0.60;;;16.10;99.90;;;;;;5078128;28;20632;-82
2022/05/24 01:49:36;;;;;;;0.60;0.47;;;16.20;99.90;;;;;;5075226;28;20617;-82
2022/05/24 01:52:08;;;;;;;0.40;0.40;;;16.10;99.90;;;;;;5075292;28;21085;-81
2022/05/24 01:54:40;;;;;;;0.40;0.30;;;16.10;99.90;;;;;;5081663;28;20624;-82
2022/05/24 01:57:12;;;;;;;0.40;0.30;;;16.10;99.90;;;;;;5075190;28;20650;-82
2022/05/24 01:59:44;;;;;;;0.40;0.40;;;16.10;99.90;;;;;;5071296;28;21191;-82
2022/05/24 02:02:12;;;;;;;0.50;0.30;;;16.00;99.90;;;;;;5070505;28;20659;-82
2022/05/24 02:04:39;;;;;;;0.50;0.50;;;16.00;99.90;;;;;;5070949;28;20645;-82
2022/05/24 02:07:10;;;;;;;0.87;0.40;;;15.90;99.90;;;;;;5070035;28;20652;-82
2022/05/24 02:09:42;;;;;;;0.30;0.20;;;15.90;99.90;;;;;;5076871;28;20621;-82
2022/05/24 02:12:14;;;;;;;0.40;0.30;;;15.90;99.90;;;;;;5091042;28;20868;-82
2022/05/24 02:14:46;;;;;;;0.80;0.80;;;15.90;99.90;;;;;;5074940;28;20626;-82
2022/05/24 02:17:17;;;;;;;0.40;0.40;;;15.80;99.90;;;;;;5075604;28;21112;-82
2022/05/24 02:19:48;;;;;;;0.30;0.20;;;15.70;99.90;;;;;;5071004;28;20622;-82
2022/05/24 02:22:19;;;;;;;0.30;0.23;;;15.70;99.90;;;;;;5072110;28;20618;-81
2022/05/24 02:24:48;;;;;;;1.03;0.40;;;15.70;99.90;;;;;;5074921;28;20617;-82
2022/05/24 02:27:15;;;;;;;0.30;0.23;;;15.60;99.90;;;;;;5070540;28;20629;-81
2022/05/24 02:29:43;;;;;;;0.50;0.50;;;15.60;99.90;;;;;;5082712;28;20993;-81
2022/05/24 02:32:10;;;;;;;0.30;0.30;;;15.60;99.90;;;;;;5082959;28;20727;-81
2022/05/24 02:34:38;;;;;;;0.40;0.23;;;15.60;99.90;;;;;;5088374;28;20622;-82
2022/05/24 02:37:05;;;;;;;0.70;0.50;;;15.60;99.90;;;;;;5073639;28;20700;-82
2022/05/24 02:41:28;;;;;;;0.63;0.40;;;15.60;99.90;;;;;;5078855;28;20727;-82
2022/05/24 02:42:18;;;;;;;0.30;0.27;;;15.70;99.90;;;;;;5081477;28;20628;-81
2022/05/24 02:44:47;;;;;;;0.50;0.47;;;15.60;99.90;;;;;;5073256;28;20720;-82
2022/05/24 02:47:14;;;;;;;0.50;0.40;;;15.70;99.90;;;;;;5069989;28;20622;-82
2022/05/24 02:49:40;;;;;;;0.40;0.30;;;15.70;99.90;;;;;;5075530;28;20664;-82
2022/05/24 02:52:08;;;;;;;0.50;0.30;;;15.60;99.90;;;;;;5075002;28;20628;-82
2022/05/24 02:54:35;;;;;;;0.40;0.40;;;15.70;99.90;;;;;;5080156;28;20650;-81
2022/05/24 02:57:04;;;;;;;1.17;0.60;;;15.70;99.90;;;;;;5088454;28;20613;-81
2022/05/24 02:59:32;;;;;;;0.60;0.23;;;15.80;99.90;;;;;;5092997;28;20739;-81
2022/05/24 03:02:00;;;;;;;0.47;0.40;;;16.00;99.90;;;;;;5087621;28;21016;-81
2022/05/24 03:04:27;;;;;;;0.60;0.60;;;16.00;99.90;;;;;;5084179;28;20725;-82
2022/05/24 03:09:38;;;;;;;0.83;0.47;;;15.60;99.90;;;;;;5074309;28;20670;-81
2022/05/24 03:14:53;;;;;;;0.50;0.50;;;15.80;99.90;;;;;;5073906;28;20616;-82
2022/05/24 03:17:22;;;;;;;0.60;0.60;;;15.70;99.90;;;;;;5074564;28;20700;-82
2022/05/24 03:19:51;;;;;;;0.40;0.40;;;15.70;99.90;;;;;;5084242;28;20638;-82
2022/05/24 03:22:20;;;;;;;0.60;0.40;;;15.80;99.90;;;;;;5073971;28;20625;-82
2022/05/24 03:24:47;;;;;;;0.30;0.20;;;15.80;99.90;;;;;;5074050;28;20627;-82
2022/05/24 03:27:14;;;;;;;0.40;0.40;;;15.80;99.90;;;;;;5083417;28;20629;-82
2022/05/24 03:29:43;;;;;;;0.57;0.43;;;15.90;99.90;;;;;;5081682;28;20605;-82
2022/05/24 03:32:11;;;;;;;0.40;0.40;;;15.80;99.90;;;;;;5084819;28;20632;-82
2022/05/24 03:34:41;;;;;;;1.03;0.87;;;15.80;99.90;;;;;;5079354;28;21207;-82
2022/05/24 03:37:08;;;;;;;0.50;0.50;;;15.80;99.90;;;;;;5072729;28;20981;-81
2022/05/24 03:39:36;;;;;;;0.30;0.27;;;15.70;99.90;;;;;;5073840;28;20624;-82
2022/05/24 03:42:04;;;;;;;0.30;0.30;;;15.60;99.90;;;;;;5072773;28;20739;-82
2022/05/24 03:44:32;;;;;;;0.30;0.30;;;15.60;99.90;;;;;;5073552;28;20661;-82
2022/05/24 03:47:19;;;;;;;0.60;0.40;;;15.60;99.90;;;;;;5080205;28;20629;-82
2022/05/24 03:49:49;;;;;;;0.50;0.50;;;15.70;99.90;;;;;;5073968;28;20652;-81
2022/05/24 03:52:17;;;;;;;0.47;0.47;;;15.70;99.90;;;;;;5073827;28;21243;-82
2022/05/24 03:54:45;;;;;;;0.73;0.73;;;15.70;99.90;;;;;;5072864;28;21425;-82
2022/05/24 03:59:57;;;;;;;0.40;0.30;;;15.60;99.90;;;;;;5053419;28;20618;-82
2022/05/24 04:02:23;;;;;;;0.60;0.30;;;15.60;99.90;;;;;;5083134;28;20710;-82
2022/05/24 04:04:52;;;;;;;1.40;0.53;;;15.60;99.90;;;;;;5092588;28;20618;-82
2022/05/24 04:07:19;;;;;;;0.30;0.27;;;15.70;99.90;;;;;;5067764;28;20827;-82
2022/05/24 04:09:45;;;;;;;0.30;0.20;;;15.70;99.90;;;;;;5073201;28;20630;-82
2022/05/24 04:12:12;;;;;;;0.57;0.57;;;15.80;99.90;;;;;;5073183;28;20629;-82
2022/05/24 04:14:39;;;;;;;0.60;0.50;;;15.60;99.90;;;;;;5076210;28;21020;-82
2022/05/24 04:17:06;;;;;;;0.80;0.70;;;15.60;99.90;;;;;;5072584;28;20620;-82
2022/05/24 04:19:33;;;;;;;0.40;0.30;;;15.70;99.90;;;;;;5072489;28;21086;-82
2022/05/24 04:22:01;;;;;;;0.53;0.37;;;15.70;99.90;;;;;;5073406;28;20628;-82
2022/05/24 04:24:28;;;;;;;0.50;0.50;;;15.70;99.90;;;;;;5074130;28;20641;-82
2022/05/24 04:26:55;;;;;;;0.57;0.57;;;15.70;99.90;;;;;;5076828;28;20682;-82
2022/05/24 04:29:22;;;;;;;0.53;0.53;;;15.60;99.90;;;;;;5079880;28;20732;-82
2022/05/24 04:31:49;;;;;;;0.60;0.60;;;15.60;99.90;;;;;;5072754;28;21349;-82
2022/05/24 04:34:16;;;;;;;0.43;0.30;;;15.80;99.90;;;;;;5077480;28;20616;-82
2022/05/24 04:36:43;;;;;;;0.50;0.50;;;16.00;99.90;;;;;;5082554;28;21015;-82
2022/05/24 04:39:11;;;;;;;0.40;0.40;;;16.00;99.90;;;;;;5069603;28;21033;-81
2022/05/24 04:44:22;;;;;;;0.50;0.50;;;16.10;99.90;;;;;;5070327;28;20716;-82
2022/05/24 04:49:34;;;;;;;0.63;0.40;;;16.00;99.90;;;;;;5086602;28;20736;-82
2022/05/24 04:52:01;;;;;;;0.40;0.30;;;16.10;99.90;;;;;;5083883;28;20635;-82
2022/05/24 04:54:29;;;;;;;0.70;0.43;;;16.10;99.90;;;;;;5091914;28;20645;-82
2022/05/24 04:56:56;;;;;;;0.70;0.70;;;16.00;99.90;;;;;;5078210;28;20625;-83
2022/05/24 04:59:23;;;;;;;2.00;0.63;;;16.00;99.90;;;;;;5071729;28;20776;-82
2022/05/24 05:01:51;;;;;;;1.17;0.60;;;15.90;99.90;;;;;;5072860;28;20622;-82
2022/05/24 05:04:18;;;;;;;0.40;0.40;;;15.90;99.90;;;;;;5081197;28;20621;-82
2022/05/24 05:06:46;;;;;;;0.83;0.80;;;15.90;99.90;;;;;;5088937;28;20608;-83
2022/05/24 05:09:14;;;;;;;0.57;0.57;;;15.90;99.90;;;;;;5074176;28;21199;-82
2022/05/24 05:11:42;;;;;;;0.67;0.67;;;16.00;99.90;;;;;;5084549;28;20830;-82
2022/05/24 05:14:10;;;;;;;0.60;0.60;;;16.10;99.90;;;;;;5076481;28;20653;-82
2022/05/24 05:16:38;;;;;;;0.87;0.77;;;16.20;99.90;;;;;;5071423;28;20671;-82
2022/05/24 05:19:05;;;;;;;0.77;0.77;;;16.20;99.90;;;;;;5074744;28;20710;-82
2022/05/24 05:21:35;;;;;;;1.07;0.70;;;16.10;99.90;;;;;;5072077;28;20639;-82
2022/05/24 05:24:04;;;;;;;0.50;0.50;;;16.20;99.90;;;;;;5080046;28;20750;-82
2022/05/24 05:26:31;;;;;;;0.90;0.87;;;16.20;99.90;;;;;;5076507;28;20704;-82
2022/05/24 05:28:59;;;;;;;1.40;1.00;;;16.20;99.90;;;;;;5071148;28;20656;-82
2022/05/24 05:31:26;;;;;;;0.70;0.70;;;16.30;99.90;;;;;;5082131;28;20709;-82
2022/05/24 05:33:54;;;;;;;0.93;0.90;;;16.30;99.90;;;;;;5078712;28;20698;-82
2022/05/24 05:36:21;;;;;;;0.70;0.70;;;16.20;99.90;;;;;;5057195;28;20694;-82
2022/05/24 05:38:49;;;;;;;0.97;0.60;;;16.20;99.90;;;;;;5072348;28;20996;-82
2022/05/24 05:41:18;;;;;;;0.40;0.40;;;16.50;99.90;;;;;;5076426;28;20667;-82
2022/05/24 05:43:45;;;;;;;0.50;0.50;;;16.50;99.90;;;;;;5073272;28;21307;-82
2022/05/24 05:46:15;;;;;;;0.70;0.70;;;16.60;99.90;;;;;;5061035;28;20634;-82
2022/05/24 05:48:44;;;;;;;0.90;0.90;;;16.70;99.90;;;;;;5071087;28;20653;-82
2022/05/24 05:51:13;;;;;;;0.97;0.60;;;16.80;99.90;;;;;;5073447;28;20640;-82
2022/05/24 05:53:41;;;;;;;1.00;0.60;;;16.90;99.90;;;;;;5062366;28;20636;-81
2022/05/24 05:56:14;;;;;;;0.60;0.60;;;16.80;99.90;;;;;;5063533;28;21181;-82
2022/05/24 05:58:41;;;;;;;0.60;0.60;;;16.70;99.90;;;;;;5054998;28;20653;-82
2022/05/24 06:01:13;;;;;;;0.63;0.60;;;16.80;99.90;;;;;;5057123;28;20688;-82
2022/05/24 06:03:41;;;;;;;0.70;0.70;;;16.80;99.90;;;;;;5062827;28;20660;-83
2022/05/24 06:06:10;;;;;;;1.07;0.60;;;16.80;99.90;;;;;;5086024;28;20631;-82
2022/05/24 06:08:37;;;;;;;0.50;0.50;;;16.80;99.90;;;;;;5071576;28;20630;-83
2022/05/24 06:11:04;;;;;;;0.70;0.70;;;16.90;99.90;;;;;;5075234;28;20609;-83
2022/05/24 06:13:31;;;;;;;0.77;0.77;;;17.00;99.90;;;;;;5071238;28;21067;-83
2022/05/24 06:16:00;;;;;;;0.90;0.90;;;17.10;99.90;;;;;;5072033;28;20612;-82
2022/05/24 06:18:27;;;;;;;0.80;0.80;;;17.20;99.90;;;;;;5087110;28;20768;-82
2022/05/24 06:20:55;;;;;;;0.70;0.50;;;17.30;99.90;;;;;;5072028;28;21016;-83
2022/05/24 06:23:22;;;;;;;1.43;0.67;;;17.40;99.90;;;;;;5077967;28;20724;-83
2022/05/24 06:25:49;;;;;;;0.60;0.60;;;17.40;99.80;;;;;;5078433;28;21153;-82
2022/05/24 06:28:17;;;;;;;0.40;0.40;;;17.50;99.50;;;;;;5083100;28;20667;-83
2022/05/24 06:30:44;;;;;;;0.80;0.70;;;17.60;98.40;;;;;;5071010;28;20960;-83
2022/05/24 06:33:12;;;;;;;0.67;0.57;;;17.50;98.40;;;;;;5071325;28;20721;-82
2022/05/24 06:35:40;;;;;;;0.60;0.60;;;17.50;98.30;;;;;;5070546;28;20628;-83
2022/05/24 06:38:09;;;;;;;0.60;0.60;;;17.60;98.10;;;;;;5071480;28;20629;-82
2022/05/24 06:40:36;;;;;;;0.60;0.60;;;17.80;98.10;;;;;;5071231;28;20614;-83
2022/05/24 06:43:03;;;;;;;0.97;0.70;;;17.90;97.50;;;;;;5090838;28;20732;-83
2022/05/24 06:45:31;;;;;;;0.60;0.60;;;17.80;97.70;;;;;;5073805;28;20622;-83
2022/05/24 06:47:58;;;;;;;0.70;0.67;;;17.80;96.90;;;;;;5071352;28;20679;-83
2022/05/24 06:50:25;;;;;;;0.60;0.60;;;17.80;97.40;;;;;;5072105;28;20630;-82
2022/05/24 06:52:56;;;;;;;0.50;0.50;;;17.90;97.40;;;;;;5061559;28;20729;-82
2022/05/24 06:55:25;;;;;;;0.50;0.50;;;18.00;96.60;;;;;;5076944;28;20650;-83
2022/05/24 06:57:52;;;;;;;0.70;0.60;;;17.70;96.20;;;;;;5070101;28;21223;-83
2022/05/24 07:03:07;;;;;;;0.40;0.40;;;17.70;96.70;;;;;;5069016;28;20633;-82
2022/05/24 07:05:35;;;;;;;0.67;0.67;;;17.70;96.30;;;;;;5090747;28;20609;-83
2022/05/24 07:08:02;;;;;;;1.07;0.43;;;17.60;96.30;;;;;;5087452;28;20681;-83
2022/05/24 07:10:31;;;;;;;1.00;0.50;;;17.40;96.30;;;;;;5090592;28;20732;-82
2022/05/24 07:13:03;;;;;;;0.50;0.40;;;17.10;97.70;;;;;;5083714;28;21249;-83
2022/05/24 07:15:31;;;;;;;0.90;0.27;;;16.40;94.50;;;;;;5074332;28;20617;-81
2022/05/24 07:17:58;;;;;;;0.50;0.30;;;15.80;98.10;;;;;;5070781;28;21049;-81
2022/05/24 07:20:26;;;;;;;0.40;0.30;;;15.20;99.50;;;;;;5070404;28;20673;-82
2022/05/24 07:22:54;;;;;;;0.30;0.20;;;14.40;99.50;;;;;;5075326;28;21041;-81
2022/05/24 07:25:21;;;;;;;0.30;0.20;;;14.20;99.90;;;;;;5086391;28;21151;-82
2022/05/24 07:27:50;;;;;;;0.60;0.30;;;14.10;99.90;;;;;;5074914;28;21028;-81
2022/05/24 07:30:16;;;;;;;0.30;0.20;;;14.10;99.90;;;;;;5070548;28;20637;-80
2022/05/24 07:32:45;;;;;;;2.57;0.40;;;13.90;99.90;;;;;;5072897;28;20723;-81
2022/05/24 07:35:13;;;;;;;0.40;0.30;;;13.70;99.90;;;;;;5073727;28;20638;-81
2022/05/24 07:37:40;;;;;;;0.60;0.20;;;13.80;99.90;;;;;;5071419;28;20736;-80
2022/05/24 07:45:49;;;;;;;1.10;0.73;;;14.00;99.90;;;;;;5072759;28;20609;-82
2022/05/24 07:48:17;;;;;;;0.30;0.30;;;14.00;99.90;;;;;;5076100;28;20678;-81
2022/05/24 07:50:44;;;;;;;0.40;0.20;;;14.10;99.90;;;;;;5083179;28;20671;-81
2022/05/24 07:53:11;;;;;;;0.60;0.57;;;14.10;99.90;;;;;;5060985;28;20669;-81
2022/05/24 07:55:38;;;;;;;2.57;0.50;;;14.30;99.90;;;;;;5056423;28;20683;-81
2022/05/24 07:58:07;;;;;;;0.60;0.37;;;14.40;99.90;;;;;;5089101;28;21236;-81
2022/05/24 08:00:35;;;;;;;1.17;0.77;;;14.30;99.90;;;;;;5072307;28;20672;-80
2022/05/24 08:03:02;;;;;;;0.70;0.37;;;14.50;99.90;;;;;;5074701;28;20609;-80
2022/05/24 08:05:32;;;;;;;0.40;0.23;;;14.80;99.90;;;;;;5072824;28;21332;-81
2022/05/24 08:08:00;;;;;;;0.70;0.30;;;14.80;99.90;;;;;;5078702;28;20678;-80
2022/05/24 08:10:28;;;;;;;0.40;0.30;;;14.70;99.90;;;;;;5092043;28;20647;-82
2022/05/24 08:12:55;;;;;;;0.50;0.20;;;14.80;99.90;;;;;;5092726;28;21018;-82
2022/05/24 08:15:25;;;;;;;0.70;0.30;;;14.90;99.90;;;;;;5091376;28;20984;-83
2022/05/24 08:17:52;;;;;;;0.57;0.37;;;15.00;99.90;;;;;;5080137;28;21261;-81
2022/05/24 08:20:20;;;;;;;0.57;0.40;;;15.20;99.90;;;;;;5073777;28;20671;-82
2022/05/24 08:22:47;;;;;;;0.30;0.10;;;15.30;99.90;;;;;;5072686;28;20676;-82
2022/05/24 08:25:15;;;;;;;0.30;0.20;;;15.50;99.90;;;;;;5077945;28;20632;-82
2022/05/24 08:27:42;;;;;;;0.40;0.30;;;15.60;99.90;;;;;;5086724;28;21162;-82
2022/05/24 08:30:11;;;;;;;0.40;0.30;;;15.60;99.90;;;;;;5082005;28;20659;-82
2022/05/24 08:32:41;;;;;;;0.30;0.20;;;15.70;99.90;;;;;;5073958;28;21240;-82
2022/05/24 08:35:09;;;;;;;0.33;0.27;;;15.70;99.90;;;;;;5072679;28;21068;-81
2022/05/24 08:37:36;;;;;;;0.40;0.37;;;15.70;99.50;;;;;;5073134;28;20621;-82
2022/05/24 08:40:04;;;;;;;0.30;0.20;;;15.50;99.70;;;;;;5074116;28;21296;-81
2022/05/24 08:42:46;;;;;;;0.40;0.20;;;15.50;99.00;;;;;;5074001;28;21175;-82
2022/05/24 08:50:52;;;;;;;0.30;0.20;;;15.90;98.50;;;;;;5073472;28;20744;-81
2022/05/24 08:53:26;;;;;;;0.47;0.40;;;16.00;97.60;;;;;;5078856;28;20633;-81
2022/05/24 08:55:53;;;;;;;0.47;0.47;;;15.90;97.00;;;;;;5072788;28;20631;-81
2022/05/24 08:58:29;;;;;;;0.40;0.40;;;16.00;98.00;;;;;;5075769;28;20621;-82
2022/05/24 09:00:57;;;;;;;0.40;0.23;;;16.00;97.80;;;;;;5071702;28;20734;-83
2022/05/24 09:03:26;;;;;;;0.63;0.30;;;16.30;99.20;;;;;;5084471;28;21046;-83
2022/05/24 09:06:05;;;;;;;0.50;0.40;;;16.30;97.10;;;;;;5085051;28;20993;-82
2022/05/24 09:08:38;;;;;;;0.70;0.50;;;16.30;96.40;;;;;;5072108;28;20629;-82
2022/05/24 09:11:10;;;;;;;1.43;0.30;;;16.40;96.70;;;;;;5073169;28;20724;-82
2022/05/24 09:14:12;;;;;;;0.50;0.50;;;16.50;97.00;;;;;;5087363;28;20678;-82
2022/05/24 09:16:54;;;;;;;0.40;0.40;;;16.40;96.30;;;;;;5087737;28;21144;-83
2022/05/24 09:19:26;;;;;;;0.40;0.33;;;16.60;95.60;;;;;;5073583;28;20661;-82
2022/05/24 09:21:54;;;;;;;0.40;0.30;;;16.70;95.40;;;;;;5072958;28;20625;-82
2022/05/24 09:24:42;;;;;;;0.50;0.20;;;16.80;93.70;;;;;;5072100;28;20618;-81
2022/05/24 09:27:12;;;;;;;0.40;0.30;;;16.90;94.50;;;;;;5080885;28;20799;-81
2022/05/24 09:30:02;;;;;;;0.30;0.20;;;16.70;93.50;;;;;;5086366;28;20657;-82
2022/05/24 09:32:37;;;;;;;1.27;0.70;;;16.60;93.10;;;;;;5072204;28;20704;-82
2022/05/24 09:35:13;;;;;;;0.30;0.20;;;16.60;93.60;;;;;;5073185;28;20668;-81
2022/05/24 09:37:42;;;;;;;0.40;0.37;;;16.80;94.40;;;;;;5071812;28;20641;-81
2022/05/24 09:40:18;;;;;;;0.40;0.30;;;17.20;94.40;;;;;;5072563;28;21286;-81
2022/05/24 09:42:45;;;;;;;0.47;0.30;;;17.50;93.20;;;;;;5076604;28;20616;-81
2022/05/24 09:45:16;;;;;;;0.50;0.20;;;17.30;91.40;;;;;;5070584;28;20707;-81
2022/05/24 09:47:55;;;;;;;0.40;0.23;;;17.30;91.90;;;;;;5071644;28;20630;-82
2022/05/24 09:50:29;;;;;;;0.30;0.30;;;16.80;90.50;;;;;;5073130;28;20617;-82
2022/05/24 09:53:10;;;;;;;0.30;0.30;;;16.60;91.10;;;;;;5062171;28;20622;-81
2022/05/24 09:55:47;;;;;;;0.53;0.30;;;16.70;90.80;;;;;;5061436;28;20616;-82
2022/05/24 09:58:20;;;;;;;0.33;0.23;;;16.80;90.50;;;;;;5078806;28;20621;-82
2022/05/24 10:00:52;;;;;;;0.40;0.20;;;16.60;91.00;;;;;;5070376;28;21284;-81
2022/05/24 10:03:26;;;;;;;0.50;0.30;;;17.00;92.10;;;;;;5070270;28;20609;-82
2022/05/24 10:06:21;;;;;;;0.70;0.40;;;17.30;91.50;;;;;;5081980;28;20720;-81
2022/05/24 10:08:52;;;;;;;0.73;0.47;;;17.20;90.90;;;;;;5089235;28;21213;-81
2022/05/24 10:11:29;;;;;;;0.43;0.30;;;16.90;90.20;;;;;;5081856;28;21170;-81
2022/05/24 10:14:20;;;;;;;0.40;0.30;;;16.80;91.00;;;;;;5072826;28;20606;-81
2022/05/24 10:16:53;;;;;;;0.30;0.20;;;16.70;90.10;;;;;;5070784;28;20737;-82
2022/05/24 10:19:35;;;;;;;0.30;0.23;;;17.10;90.20;;;;;;5083454;28;20687;-81
2022/05/24 10:22:15;;;;;;;1.13;0.63;;;17.30;89.50;;;;;;5070986;28;20713;-81
2022/05/24 10:24:56;;;;;;;2.87;0.40;;;17.70;86.20;;;;;;5071336;28;20683;-82
2022/05/24 10:27:30;;;;;;;0.30;0.23;;;17.90;81.80;;;;;;5065949;28;21062;-82
2022/05/24 10:30:05;;;;;;;0.57;0.40;;;18.10;83.10;;;;;;5082147;28;20673;-81
2022/05/24 10:38:48;;;;;;;0.40;0.30;;;18.80;78.40;;;;;;5049409;28;20610;-81
2022/05/24 10:41:19;;;;;;;0.40;0.40;;;18.50;76.70;;;;;;5063737;28;20697;-81
2022/05/24 10:44:03;;;;;;;0.30;0.20;;;19.00;77.60;;;;;;5070777;28;20717;-82
2022/05/24 10:46:38;;;;;;;0.30;0.20;;;19.10;77.90;;;;;;5068480;28;20625;-82
2022/05/24 10:49:14;;;;;;;0.40;0.23;;;18.70;76.50;;;;;;5069550;28;20629;-82
2022/05/24 10:51:48;;;;;;;0.40;0.40;;;18.10;76.10;;;;;;5070011;28;20991;-82
2022/05/24 10:54:37;;;;;;;0.30;0.20;;;17.80;79.90;;;;;;5050693;28;20716;-82
2022/05/24 10:57:09;;;;;;;0.30;0.20;;;17.80;80.20;;;;;;5040048;28;20727;-82
2022/05/24 10:59:46;;;;;;;0.30;0.30;;;17.70;77.00;;;;;;5065498;28;20657;-82
2022/05/24 11:02:21;;;;;;;0.33;0.23;;;17.80;80.20;;;;;;5065003;28;20625;-83
2022/05/24 11:04:52;;;;;;;0.37;0.30;;;17.70;79.40;;;;;;5089557;28;20731;-82
2022/05/24 11:07:21;;;;;;;0.40;0.30;;;17.70;77.00;;;;;;5090287;28;20720;-82
2022/05/24 11:09:59;;;;;;;0.30;0.30;;;17.70;81.30;;;;;;5072263;28;21234;-83
2022/05/24 11:12:31;;;;;;;0.40;0.30;;;18.20;82.80;;;;;;5081149;28;20621;-82
2022/05/24 11:15:04;;;;;;;0.40;0.40;;;19.10;79.70;;;;;;5074402;28;20618;-82
2022/05/24 11:17:31;;;;;;;0.43;0.30;;;19.40;77.90;;;;;;5074360;28;20653;-83
2022/05/24 11:19:59;;;;;;;1.80;0.37;;;19.10;76.10;;;;;;5085238;28;20636;-82
2022/05/24 11:22:33;;;;;;;0.40;0.30;;;18.60;74.60;;;;;;5088578;28;20620;-82
2022/05/24 11:25:12;;;;;;;0.37;0.20;;;18.30;76.30;;;;;;5085400;28;20621;-82
2022/05/24 11:27:41;;;;;;;0.40;0.30;;;18.20;73.90;;;;;;5085383;28;20664;-82
2022/05/24 11:30:13;;;;;;;0.60;0.40;;;18.10;74.50;;;;;;5091124;28;20657;-82
2022/05/24 11:32:45;;;;;;;0.80;0.77;;;18.30;78.90;;;;;;5073170;28;20641;-82
2022/05/24 11:35:23;;;;;;;0.40;0.40;;;18.60;80.10;;;;;;5087364;28;20636;-82
2022/05/24 11:37:52;;;;;;;0.40;0.30;;;19.20;74.50;;;;;;5080181;28;21170;-82
2022/05/24 11:40:30;;;;;;;0.47;0.37;;;19.60;69.30;;;;;;5088872;28;20645;-82
2022/05/24 11:42:59;;;;;;;0.70;0.50;;;19.60;72.80;;;;;;5091625;28;20623;-83
2022/05/24 11:45:55;;;;;;;0.50;0.50;;;19.60;77.20;;;;;;5085145;28;20688;-82
2022/05/24 11:48:23;;;;;;;0.37;0.37;;;20.00;74.20;;;;;;5060748;28;20633;-83
2022/05/24 11:50:51;;;;;;;0.40;0.30;;;20.10;74.90;;;;;;5071276;28;20618;-82
2022/05/24 11:53:35;;;;;;;0.43;0.43;;;20.70;71.70;;;;;;5061122;28;20725;-82
2022/05/24 11:56:24;;;;;;;0.40;0.40;;;21.20;71.80;;;;;;5078562;28;21075;-83
2022/05/24 11:58:55;;;;;;;0.70;0.40;;;20.70;69.10;;;;;;5083418;28;21040;-83
2022/05/24 12:01:52;;;;;;;0.70;0.30;;;20.30;70.80;;;;;;5079188;28;20656;-83
2022/05/24 12:10:50;;;;;;;0.40;0.40;;;19.60;75.60;;;;;;5086095;28;20624;-83
2022/05/24 12:13:38;;;;;;;0.40;0.40;;;21.00;71.10;;;;;;5075289;28;20657;-83
2022/05/24 12:16:09;;;;;;;0.40;0.33;;;21.40;69.70;;;;;;5072802;28;20627;-82
2022/05/24 12:18:54;;;;;;;0.40;0.33;;;20.90;69.70;;;;;;5083408;28;20632;-82
2022/05/24 12:22:02;;;;;;;0.50;0.23;;;20.70;69.00;;;;;;5075303;28;20699;-83
2022/05/24 12:24:51;;;;;;;0.40;0.37;;;20.00;71.80;;;;;;5088212;28;20614;-83
2022/05/24 12:27:35;;;;;;;0.30;0.20;;;20.00;72.80;;;;;;5072570;28;21348;-83
2022/05/24 12:30:41;;;;;;;0.60;0.40;;;21.10;73.30;;;;;;5063196;28;20632;-82
2022/05/24 12:33:37;;;;;;;0.60;0.40;;;22.90;67.40;;;;;;5084907;28;20629;-84
2022/05/24 12:36:22;;;;;;;0.40;0.37;;;24.40;64.40;;;;;;5072570;28;20667;-83
2022/05/24 12:38:52;;;;;;;0.60;0.60;;;25.60;61.60;;;;;;5071078;28;20628;-83
2022/05/24 12:41:25;;;;;;;0.40;0.30;;;26.60;57.90;;;;;;5074987;28;20768;-83
2022/05/24 12:43:56;;;;;;;0.70;0.57;;;27.60;56.00;;;;;;5072911;28;21004;-83
2022/05/24 12:46:30;;;;;;;0.37;0.27;;;27.90;52.40;;;;;;5092680;28;20612;-83
2022/05/24 12:49:08;;;;;;;0.43;0.43;;;28.00;53.30;;;;;;5080190;28;20629;-83
2022/05/24 12:51:36;;;;;;;0.50;0.50;;;27.60;50.20;;;;;;5065452;28;20613;-83
2022/05/24 12:54:15;;;;;;;0.40;0.30;;;26.60;49.60;;;;;;5074376;28;20686;-83
2022/05/24 12:56:53;;;;;;;0.60;0.60;;;26.00;48.80;;;;;;5089986;28;20771;-83
2022/05/24 12:59:31;;;;;;;0.33;0.30;;;26.50;51.00;;;;;;5072255;28;20665;-83
2022/05/24 13:01:59;;;;;;;0.40;0.40;;;25.60;51.60;;;;;;5072414;28;20668;-83
2022/05/24 13:04:27;;;;;;;0.40;0.37;;;25.80;52.30;;;;;;5071611;28;20671;-83
2022/05/24 13:06:56;;;;;;;0.50;0.40;;;26.90;51.20;;;;;;5068786;28;20634;-83
2022/05/24 13:09:25;;;;;;;2.07;0.60;;;26.60;45.90;;;;;;5062307;28;21025;-83
2022/05/24 13:11:55;;;;;;;0.40;0.40;;;26.80;51.50;;;;;;5062027;28;20633;-82
2022/05/24 13:14:53;;;;;;;0.43;0.43;;;26.30;48.10;;;;;;5071194;28;20620;-83
2022/05/24 13:17:24;;;;;;;0.50;0.50;;;24.80;47.30;;;;;;5075571;28;20625;-83
2022/05/24 13:19:57;;;;;;;0.80;0.80;;;23.60;49.40;;;;;;5072410;28;21053;-82
2022/05/24 13:22:38;;;;;;;0.50;0.50;;;22.60;50.60;;;;;;5074727;28;20726;-82
2022/05/24 13:25:05;;;;;;;0.40;0.37;;;21.50;54.90;;;;;;5071526;28;20621;-82
2022/05/24 13:27:51;;;;;;;0.60;0.40;;;20.70;55.80;;;;;;5070951;28;20653;-83
2022/05/24 13:35:51;;;;;;;0.73;0.70;;;21.30;63.50;;;;;;5087001;28;20620;-83
2022/05/24 13:38:24;;;;;;;0.50;0.37;;;23.60;60.50;;;;;;5071894;28;20659;-82
2022/05/24 13:40:54;;;;;;;0.40;0.30;;;24.20;52.70;;;;;;5071832;28;20656;-83
2022/05/24 13:43:35;;;;;;;0.50;0.50;;;24.00;52.80;;;;;;5074207;28;20679;-83
2022/05/24 13:46:15;;;;;;;0.80;0.30;;;23.00;52.90;;;;;;5073166;28;20629;-83
2022/05/24 13:48:51;;;;;;;0.53;0.53;;;23.30;55.50;;;;;;5071659;28;20979;-83
2022/05/24 13:51:25;;;;;;;0.40;0.37;;;23.20;56.90;;;;;;5070843;28;20630;-83
2022/05/24 13:53:52;;;;;;;1.63;0.77;;;22.70;54.40;;;;;;5069887;28;20653;-83
2022/05/24 13:56:23;;;;;;;0.63;0.40;;;22.80;56.30;;;;;;5070533;28;20705;-83
2022/05/24 13:59:05;;;;;;;0.63;0.40;;;22.90;55.50;;;;;;5070331;28;20665;-83